Time;durP1;ratioP1;P1;durP2;ratioP2;P2;SDS_P1;SDS_P2;PMS_P1;PMS_P2;Temp;Humidity;BMP_temperature;BMP_pressure;BME280_temperature;BME280_humidity;BME280_pressure;Samples;Min_cycle;Max_cycle;Signal;HPM_P1;HPM_P2
2022/12/20 00:00:42;;;;;;;4.78;2.88;;;20.60;49.10;;;;;;5046697;28;20037;-66
2022/12/20 00:03:08;;;;;;;3.80;2.85;;;20.60;49.10;;;;;;5045671;28;20025;-65
2022/12/20 00:05:41;;;;;;;3.83;2.80;;;20.50;49.00;;;;;;5052888;28;20100;-66
2022/12/20 00:08:07;;;;;;;4.75;2.85;;;20.50;49.00;;;;;;5044582;28;20029;-66
2022/12/20 00:10:37;;;;;;;4.07;2.80;;;20.50;49.00;;;;;;5044442;28;20028;-65
2022/12/20 00:13:03;;;;;;;4.35;2.97;;;20.50;49.60;;;;;;5048380;28;20034;-66
2022/12/20 00:15:30;;;;;;;3.60;2.53;;;20.50;49.10;;;;;;5042532;28;20114;-66
2022/12/20 00:17:56;;;;;;;4.03;2.70;;;20.40;49.00;;;;;;5050214;28;20495;-66
2022/12/20 00:20:22;;;;;;;4.03;2.83;;;20.50;49.10;;;;;;5040398;28;20036;-65
2022/12/20 00:22:48;;;;;;;3.80;2.88;;;20.50;49.20;;;;;;5047360;28;20119;-65
2022/12/20 00:25:13;;;;;;;3.63;2.50;;;20.40;49.20;;;;;;5053652;28;20058;-66
2022/12/20 00:27:39;;;;;;;3.60;2.55;;;20.40;49.60;;;;;;5061123;28;20055;-66
2022/12/20 00:30:06;;;;;;;3.83;2.63;;;20.40;49.20;;;;;;5052997;28;20029;-66
2022/12/20 00:32:31;;;;;;;3.40;2.78;;;20.40;49.20;;;;;;5053242;28;20388;-66
2022/12/20 00:34:57;;;;;;;3.88;2.90;;;20.30;49.10;;;;;;5034734;28;20035;-66
2022/12/20 00:37:22;;;;;;;3.70;2.67;;;20.40;49.20;;;;;;5056867;28;20037;-66
2022/12/20 00:39:48;;;;;;;4.82;2.95;;;20.30;49.20;;;;;;5053847;28;20025;-65
2022/12/20 00:42:14;;;;;;;4.00;2.95;;;20.40;49.20;;;;;;5055927;28;20032;-67
2022/12/20 00:44:40;;;;;;;3.58;2.60;;;20.30;49.20;;;;;;5054764;28;20017;-66
2022/12/20 00:47:06;;;;;;;4.15;2.85;;;20.30;49.20;;;;;;5052924;28;20029;-66
2022/12/20 00:49:31;;;;;;;3.45;2.53;;;20.30;49.20;;;;;;5046861;28;20038;-66
2022/12/20 00:51:57;;;;;;;3.90;2.63;;;20.30;49.20;;;;;;5046575;28;20028;-65
2022/12/20 00:54:23;;;;;;;3.88;2.67;;;20.30;49.30;;;;;;5041745;28;20063;-65
2022/12/20 00:56:48;;;;;;;3.78;2.50;;;20.30;49.30;;;;;;5059403;28;20033;-65
2022/12/20 00:59:14;;;;;;;3.58;2.55;;;20.30;49.30;;;;;;5057028;28;20086;-65
2022/12/20 01:01:40;;;;;;;4.03;3.10;;;20.30;49.30;;;;;;5051112;28;20021;-66
2022/12/20 01:04:07;;;;;;;3.28;2.50;;;20.30;49.30;;;;;;5054255;28;20475;-66
2022/12/20 01:06:33;;;;;;;3.03;2.30;;;20.20;49.30;;;;;;5054883;28;20025;-66
2022/12/20 01:08:59;;;;;;;4.10;2.78;;;20.20;49.30;;;;;;5056334;28;20426;-67
2022/12/20 01:11:29;;;;;;;3.28;2.60;;;20.20;49.30;;;;;;5053641;28;20049;-66
2022/12/20 01:14:00;;;;;;;4.10;2.75;;;20.20;49.30;;;;;;5040769;28;20051;-65
2022/12/20 01:16:33;;;;;;;3.70;2.40;;;20.20;49.40;;;;;;5051916;28;20032;-65
2022/12/20 01:18:59;;;;;;;3.90;2.95;;;20.20;49.40;;;;;;5048828;28;20029;-66
2022/12/20 01:21:26;;;;;;;3.83;2.72;;;20.20;49.40;;;;;;5060115;28;20529;-66
2022/12/20 01:23:52;;;;;;;3.78;2.53;;;20.10;49.30;;;;;;5038740;28;20021;-66
2022/12/20 01:26:21;;;;;;;3.20;2.28;;;20.10;49.30;;;;;;5050537;28;20116;-66
2022/12/20 01:28:48;;;;;;;3.67;2.45;;;20.10;50.00;;;;;;5050684;28;20449;-66
2022/12/20 01:31:16;;;;;;;4.00;2.50;;;20.10;49.40;;;;;;5052485;28;20033;-66
2022/12/20 01:33:42;;;;;;;3.78;2.60;;;20.10;49.40;;;;;;5056950;28;20438;-66
2022/12/20 01:36:12;;;;;;;4.30;2.60;;;20.10;50.00;;;;;;5050739;28;20048;-66
2022/12/20 01:38:38;;;;;;;3.33;2.45;;;20.10;49.40;;;;;;5057940;28;20499;-65
2022/12/20 01:41:04;;;;;;;4.32;2.80;;;20.10;49.40;;;;;;5054606;28;20021;-65
2022/12/20 01:44:14;;;;;;;2.83;2.28;;;20.10;49.50;;;;;;5054111;28;20031;-66
2022/12/20 01:46:40;;;;;;;3.40;2.40;;;20.00;49.40;;;;;;5003847;28;20492;-66
2022/12/20 01:49:09;;;;;;;3.40;2.40;;;20.00;49.40;;;;;;5048793;28;20068;-65
2022/12/20 01:51:41;;;;;;;3.65;2.70;;;20.00;49.50;;;;;;5061645;28;20029;-66
2022/12/20 01:54:15;;;;;;;3.38;2.60;;;20.00;49.50;;;;;;5055612;28;20029;-66
2022/12/20 01:56:44;;;;;;;3.65;2.60;;;20.00;49.50;;;;;;5059700;28;20047;-66
2022/12/20 01:59:11;;;;;;;3.38;2.58;;;20.00;49.50;;;;;;5063201;28;20032;-66
2022/12/20 02:01:37;;;;;;;3.65;2.60;;;20.00;49.50;;;;;;5043598;28;20468;-65
2022/12/20 02:04:02;;;;;;;3.50;2.60;;;20.00;49.50;;;;;;5054201;28;20021;-65
2022/12/20 02:06:28;;;;;;;3.95;2.78;;;19.90;49.50;;;;;;5045450;28;20021;-65
2022/12/20 02:08:58;;;;;;;3.58;2.55;;;19.90;49.50;;;;;;5049217;28;20384;-66
2022/12/20 02:11:54;;;;;;;4.15;2.70;;;19.90;49.50;;;;;;5058086;28;20024;-66
2022/12/20 02:14:37;;;;;;;3.88;2.83;;;19.90;49.50;;;;;;5049182;28;20095;-66
2022/12/20 02:17:19;;;;;;;3.45;2.38;;;19.90;49.50;;;;;;5052367;28;20116;-67
2022/12/20 02:19:45;;;;;;;3.20;2.25;;;19.90;49.50;;;;;;5049014;28;20032;-65
2022/12/20 02:22:19;;;;;;;3.92;2.60;;;19.90;49.60;;;;;;5055867;28;20089;-66
2022/12/20 02:25:06;;;;;;;3.63;2.53;;;19.90;49.60;;;;;;5057309;28;20120;-66
2022/12/20 02:27:58;;;;;;;2.90;2.20;;;19.90;49.60;;;;;;5058585;28;20109;-65
2022/12/20 02:30:31;;;;;;;3.28;2.20;;;19.80;49.50;;;;;;5038257;28;20450;-66
2022/12/20 02:33:02;;;;;;;3.90;2.78;;;19.80;49.50;;;;;;5057668;28;20105;-65
2022/12/20 02:35:31;;;;;;;2.72;2.10;;;19.90;49.70;;;;;;5049258;28;20025;-65
2022/12/20 02:38:00;;;;;;;3.40;2.20;;;19.80;49.60;;;;;;5047321;28;20021;-66
2022/12/20 02:40:38;;;;;;;3.38;2.45;;;19.80;49.60;;;;;;5054545;28;20022;-65
2022/12/20 02:45:14;;;;;;;3.65;2.45;;;19.80;49.70;;;;;;5051146;28;20132;-66
2022/12/20 02:45:53;;;;;;;;;;;19.80;49.70;;;;;;5052159;28;20024;-65
2022/12/20 02:48:20;;;;;;;3.45;2.35;;;19.80;49.60;;;;;;5049369;28;19908;-65
2022/12/20 02:50:50;;;;;;;3.20;2.13;;;19.80;49.70;;;;;;5059821;28;20484;-66
2022/12/20 02:53:16;;;;;;;3.53;2.45;;;19.80;49.70;;;;;;5040504;28;20449;-66
2022/12/20 02:56:18;;;;;;;4.05;2.22;;;19.80;49.70;;;;;;5051937;28;20479;-66
2022/12/20 02:58:52;;;;;;;3.50;2.35;;;19.80;49.80;;;;;;5001365;28;20128;-66
2022/12/20 03:01:47;;;;;;;3.75;2.42;;;19.80;49.80;;;;;;5053687;28;20071;-65
2022/12/20 03:04:14;;;;;;;3.20;2.15;;;19.70;49.70;;;;;;5041252;28;20113;-65
2022/12/20 03:07:04;;;;;;;3.85;2.40;;;19.70;49.70;;;;;;5041990;28;20099;-65
2022/12/20 03:09:32;;;;;;;4.18;2.30;;;19.80;49.80;;;;;;5052050;28;20029;-65
2022/12/20 03:11:58;;;;;;;3.20;2.50;;;19.70;49.80;;;;;;5051407;28;20356;-65
2022/12/20 03:14:25;;;;;;;3.15;2.28;;;19.70;49.80;;;;;;5045848;28;20429;-65
2022/12/20 03:16:50;;;;;;;3.13;2.35;;;19.70;49.80;;;;;;5048370;28;20565;-66
2022/12/20 03:19:16;;;;;;;2.80;2.10;;;19.70;49.90;;;;;;5052526;28;20053;-65
2022/12/20 03:21:42;;;;;;;3.20;2.30;;;19.70;49.80;;;;;;5041360;28;20102;-66
2022/12/20 03:24:09;;;;;;;3.20;2.28;;;19.70;49.80;;;;;;5051267;28;20029;-65
2022/12/20 03:26:36;;;;;;;2.95;2.00;;;19.60;49.80;;;;;;5049847;28;20021;-65
2022/12/20 03:29:03;;;;;;;3.10;2.45;;;19.70;49.90;;;;;;5054796;28;20041;-65
2022/12/20 03:31:28;;;;;;;2.60;2.00;;;19.60;49.80;;;;;;5057282;28;20038;-65
2022/12/20 03:33:54;;;;;;;2.95;2.03;;;19.70;49.90;;;;;;5053713;28;20021;-65
2022/12/20 03:36:22;;;;;;;3.22;2.45;;;19.70;50.00;;;;;;5038787;28;20095;-65
2022/12/20 03:38:52;;;;;;;3.00;2.10;;;19.60;49.90;;;;;;5053982;28;20559;-65
2022/12/20 03:41:18;;;;;;;3.47;2.40;;;19.60;50.00;;;;;;5049245;28;20094;-66
2022/12/20 03:43:44;;;;;;;3.30;2.20;;;19.60;50.00;;;;;;5038823;28;20058;-65
2022/12/20 03:46:10;;;;;;;2.85;2.15;;;19.60;50.00;;;;;;5047145;28;20059;-66
2022/12/20 03:48:35;;;;;;;2.75;2.00;;;19.60;50.00;;;;;;5044562;28;20480;-65
2022/12/20 03:51:01;;;;;;;2.80;2.00;;;19.60;50.10;;;;;;5044155;28;20033;-65
2022/12/20 03:53:26;;;;;;;2.78;2.00;;;19.60;50.10;;;;;;5050580;28;20388;-65
2022/12/20 03:55:52;;;;;;;3.00;2.08;;;19.60;50.10;;;;;;5045157;28;20373;-65
2022/12/20 03:58:18;;;;;;;3.00;2.20;;;19.60;50.20;;;;;;5049766;28;20365;-66
2022/12/20 04:00:43;;;;;;;3.08;2.10;;;19.60;50.20;;;;;;5051564;28;20027;-64
2022/12/20 04:03:09;;;;;;;3.00;2.00;;;19.50;50.30;;;;;;5055293;28;20381;-67
2022/12/20 04:05:34;;;;;;;3.10;2.20;;;19.50;50.20;;;;;;5049445;28;20064;-67
2022/12/20 04:08:00;;;;;;;3.03;2.03;;;19.50;50.20;;;;;;5053655;28;20057;-66
2022/12/20 04:10:26;;;;;;;3.20;2.20;;;19.50;50.20;;;;;;5047851;28;20510;-66
2022/12/20 04:12:52;;;;;;;2.72;1.90;;;19.50;50.30;;;;;;5046768;28;20033;-66
2022/12/20 04:15:17;;;;;;;3.08;2.10;;;19.50;50.30;;;;;;5054003;28;20025;-67
2022/12/20 04:17:43;;;;;;;3.00;2.00;;;19.50;50.30;;;;;;5048148;28;20605;-66
2022/12/20 04:20:18;;;;;;;3.05;2.25;;;19.50;50.30;;;;;;5049923;28;20029;-67
2022/12/20 04:22:45;;;;;;;3.15;2.20;;;19.50;50.40;;;;;;5048866;28;20021;-66
2022/12/20 04:25:11;;;;;;;3.33;2.30;;;19.50;50.40;;;;;;5066905;28;20028;-66
2022/12/20 04:27:37;;;;;;;3.28;2.13;;;19.50;50.40;;;;;;5059778;28;20032;-65
2022/12/20 04:30:03;;;;;;;2.53;1.75;;;19.50;50.40;;;;;;5058240;28;20056;-66
2022/12/20 04:32:28;;;;;;;2.83;2.20;;;19.40;50.50;;;;;;5058414;28;20048;-65
2022/12/20 04:34:54;;;;;;;2.92;2.13;;;19.50;50.50;;;;;;5052481;28;20035;-65
2022/12/20 04:37:20;;;;;;;3.17;1.98;;;19.40;50.60;;;;;;5044218;28;20496;-65
2022/12/20 04:39:45;;;;;;;3.10;2.47;;;19.40;50.60;;;;;;5049686;28;20033;-65
2022/12/20 04:42:11;;;;;;;3.15;2.10;;;19.40;50.60;;;;;;5055098;28;20097;-68
2022/12/20 04:44:36;;;;;;;3.30;2.22;;;19.40;50.60;;;;;;5054307;28;20032;-67
2022/12/20 04:47:02;;;;;;;3.15;2.30;;;19.40;50.50;;;;;;5054230;28;20432;-66
2022/12/20 04:49:28;;;;;;;3.28;2.17;;;19.40;50.70;;;;;;5045108;28;20072;-66
2022/12/20 04:51:53;;;;;;;3.22;2.05;;;19.40;50.70;;;;;;5045825;28;20376;-67
2022/12/20 04:54:19;;;;;;;3.45;2.40;;;19.40;50.70;;;;;;5046556;28;20072;-66
2022/12/20 04:56:44;;;;;;;3.05;2.10;;;19.30;50.70;;;;;;5053432;28;20463;-67
2022/12/20 04:59:11;;;;;;;3.78;2.47;;;19.30;50.80;;;;;;5062713;28;20148;-67
2022/12/20 05:01:37;;;;;;;3.38;2.47;;;19.30;50.80;;;;;;5055425;28;20021;-64
2022/12/20 05:04:03;;;;;;;3.33;2.20;;;19.30;50.80;;;;;;5056709;28;20383;-68
2022/12/20 05:06:28;;;;;;;3.13;2.30;;;19.30;50.90;;;;;;5046894;28;20379;-66
2022/12/20 05:08:54;;;;;;;3.20;2.40;;;19.30;50.90;;;;;;5049799;28;20033;-68
2022/12/20 05:11:20;;;;;;;3.22;2.30;;;19.30;51.00;;;;;;5057462;28;20035;-64
2022/12/20 05:13:45;;;;;;;3.67;2.70;;;19.30;50.90;;;;;;5058568;28;20099;-67
2022/12/20 05:16:11;;;;;;;3.13;2.28;;;19.30;51.00;;;;;;5050912;28;20155;-67
2022/12/20 05:18:37;;;;;;;3.20;2.15;;;19.30;51.10;;;;;;5052571;28;20136;-65
2022/12/20 05:26:35;;;;;;;3.25;2.17;;;19.30;51.60;;;;;;5050690;28;20084;-65
2022/12/20 05:29:01;;;;;;;3.15;2.30;;;19.30;51.10;;;;;;5042421;28;20026;-65
2022/12/20 05:31:26;;;;;;;3.13;2.30;;;19.30;51.20;;;;;;5054853;28;20025;-65
2022/12/20 05:33:53;;;;;;;3.10;2.28;;;19.30;51.20;;;;;;5055030;28;20027;-65
2022/12/20 05:36:19;;;;;;;3.10;2.10;;;19.20;51.20;;;;;;5052040;28;20063;-65
2022/12/20 05:38:44;;;;;;;3.38;2.50;;;19.20;51.20;;;;;;5054984;28;20497;-65
2022/12/20 05:41:10;;;;;;;3.08;2.30;;;19.30;51.30;;;;;;5052548;28;20210;-65
2022/12/20 05:43:36;;;;;;;2.72;2.10;;;19.20;51.30;;;;;;5049026;28;20094;-65
2022/12/20 05:46:02;;;;;;;3.03;2.17;;;19.30;51.30;;;;;;5052257;28;20476;-65
2022/12/20 05:48:27;;;;;;;3.20;2.00;;;19.20;51.30;;;;;;5059357;28;20383;-65
2022/12/20 05:50:53;;;;;;;2.95;2.00;;;19.20;51.30;;;;;;5059757;28;20060;-65
2022/12/20 05:53:18;;;;;;;2.95;2.17;;;19.30;51.40;;;;;;5047625;28;20033;-65
2022/12/20 05:55:47;;;;;;;3.13;2.10;;;19.20;51.40;;;;;;5058720;28;20028;-65
2022/12/20 05:58:13;;;;;;;2.50;1.93;;;19.20;51.30;;;;;;5055530;28;20091;-65
2022/12/20 06:00:42;;;;;;;3.08;1.90;;;19.20;51.40;;;;;;5039095;28;20263;-66
2022/12/20 06:03:10;;;;;;;2.90;2.00;;;19.20;51.40;;;;;;5050174;28;20029;-65
2022/12/20 06:05:37;;;;;;;2.65;1.92;;;19.20;51.40;;;;;;5044388;28;20373;-65
2022/12/20 06:08:06;;;;;;;3.38;2.15;;;19.20;51.50;;;;;;5056197;28;20036;-65
2022/12/20 06:10:33;;;;;;;;;;;19.20;51.50;;;;;;5047986;28;20029;-65
2022/12/20 06:12:59;;;;;;;3.10;1.90;;;19.20;51.50;;;;;;5058219;28;19927;-66
2022/12/20 06:15:25;;;;;;;2.95;2.05;;;19.20;51.50;;;;;;5053460;28;20078;-65
2022/12/20 06:17:51;;;;;;;2.30;1.70;;;19.20;51.50;;;;;;5051207;28;20488;-65
2022/12/20 06:20:16;;;;;;;2.75;2.03;;;19.20;51.50;;;;;;5050698;28;20344;-64
2022/12/20 06:22:42;;;;;;;2.90;1.80;;;19.20;51.50;;;;;;5028441;28;20041;-65
2022/12/20 06:25:08;;;;;;;3.00;2.00;;;19.30;51.60;;;;;;5050969;28;20021;-65
2022/12/20 06:27:35;;;;;;;2.53;1.80;;;19.20;51.60;;;;;;5053772;28;20439;-66
2022/12/20 06:30:02;;;;;;;2.85;2.10;;;19.20;51.80;;;;;;5047541;28;20033;-67
2022/12/20 06:32:27;;;;;;;3.22;2.42;;;19.30;52.50;;;;;;5043182;28;20045;-67
2022/12/20 06:34:53;;;;;;;3.22;2.20;;;19.50;52.50;;;;;;5048992;28;20057;-66
2022/12/20 06:37:19;;;;;;;3.78;2.45;;;19.70;52.50;;;;;;5050696;28;20021;-66
2022/12/20 06:39:44;;;;;;;2.90;2.10;;;19.80;52.30;;;;;;5049075;28;20104;-65
2022/12/20 06:42:10;;;;;;;2.90;2.17;;;20.00;52.30;;;;;;5062597;28;20483;-66
2022/12/20 06:44:35;;;;;;;3.25;2.30;;;20.30;52.00;;;;;;5063568;28;20388;-66
2022/12/20 06:47:01;;;;;;;2.63;1.90;;;20.40;52.00;;;;;;5048185;28;20040;-65
2022/12/20 06:49:27;;;;;;;2.42;1.80;;;20.50;52.10;;;;;;5043802;28;20051;-65
2022/12/20 06:51:52;;;;;;;2.40;1.60;;;20.50;52.00;;;;;;5044074;28;20077;-66
2022/12/20 06:54:18;;;;;;;2.63;1.55;;;20.50;52.10;;;;;;5048556;28;20384;-66
2022/12/20 06:56:43;;;;;;;2.60;1.83;;;20.50;52.00;;;;;;5054247;28;20036;-67
2022/12/20 06:59:09;;;;;;;3.10;2.20;;;20.50;52.30;;;;;;5048256;28;20056;-66
2022/12/20 07:01:35;;;;;;;2.30;1.77;;;20.70;52.30;;;;;;5047161;28;20021;-65
2022/12/20 07:04:00;;;;;;;2.33;1.55;;;21.00;51.90;;;;;;5058094;28;20031;-66
2022/12/20 07:06:28;;;;;;;2.35;1.70;;;21.20;51.70;;;;;;5056914;28;20018;-66
2022/12/20 07:08:54;;;;;;;2.80;1.80;;;21.20;51.70;;;;;;5051155;28;20047;-66
2022/12/20 07:11:20;;;;;;;2.10;1.40;;;21.10;51.70;;;;;;5057419;28;20446;-66
2022/12/20 07:13:45;;;;;;;2.60;2.00;;;21.10;51.80;;;;;;5052477;28;20112;-65
2022/12/20 07:16:11;;;;;;;2.40;1.73;;;21.10;52.20;;;;;;5054877;28;20396;-65
2022/12/20 07:18:37;;;;;;;2.17;1.50;;;21.30;52.10;;;;;;5043857;28;20059;-66
2022/12/20 07:21:04;;;;;;;1.80;1.30;;;21.60;51.70;;;;;;5047647;28;20017;-66
2022/12/20 07:23:29;;;;;;;2.20;1.40;;;21.70;51.40;;;;;;5049964;28;20036;-66
2022/12/20 07:25:57;;;;;;;2.28;1.40;;;21.60;51.40;;;;;;5039102;28;20108;-66
2022/12/20 07:28:23;;;;;;;1.77;1.27;;;21.60;51.50;;;;;;5039907;28;20117;-67
2022/12/20 07:30:49;;;;;;;2.33;1.58;;;21.50;51.60;;;;;;5046088;28;20374;-66
2022/12/20 07:33:15;;;;;;;2.53;1.60;;;21.60;51.90;;;;;;5050550;28;20027;-67
2022/12/20 07:35:40;;;;;;;2.85;1.63;;;21.90;51.90;;;;;;5055099;28;20029;-65
2022/12/20 07:38:06;;;;;;;2.05;1.30;;;22.10;51.50;;;;;;5050827;28;20099;-66
2022/12/20 07:40:31;;;;;;;2.47;1.30;;;22.20;51.10;;;;;;5052048;28;20022;-65
2022/12/20 07:42:57;;;;;;;1.60;1.20;;;22.20;51.20;;;;;;5055465;28;20021;-65
2022/12/20 07:45:23;;;;;;;1.70;1.20;;;22.10;51.50;;;;;;5053344;28;20115;-65
2022/12/20 07:47:48;;;;;;;2.28;1.40;;;22.10;51.60;;;;;;5057583;28;20077;-66
2022/12/20 07:50:14;;;;;;;2.08;1.40;;;22.10;52.10;;;;;;5061345;28;20025;-66
2022/12/20 07:52:43;;;;;;;2.30;1.42;;;22.40;51.70;;;;;;5039903;28;20109;-66
2022/12/20 07:55:10;;;;;;;2.28;1.30;;;22.70;51.50;;;;;;5030223;28;20025;-66
2022/12/20 07:57:56;;;;;;;1.63;1.20;;;22.80;51.30;;;;;;5039578;28;20489;-66
2022/12/20 08:00:22;;;;;;;1.38;1.08;;;22.70;51.50;;;;;;5041230;28;20021;-65
2022/12/20 08:03:01;;;;;;;1.70;1.10;;;22.70;51.60;;;;;;5059901;28;20028;-66
2022/12/20 08:05:27;;;;;;;1.90;1.30;;;22.60;52.10;;;;;;5053674;28;20478;-66
2022/12/20 08:07:57;;;;;;;1.83;1.30;;;22.80;52.10;;;;;;5043659;28;20119;-66
2022/12/20 08:10:23;;;;;;;2.08;1.42;;;22.90;51.60;;;;;;5051456;28;20388;-65
2022/12/20 08:12:49;;;;;;;1.73;0.90;;;22.80;51.70;;;;;;5052182;28;20033;-67
2022/12/20 08:15:14;;;;;;;2.33;1.10;;;22.80;52.00;;;;;;5049129;28;20513;-66
2022/12/20 08:17:40;;;;;;;1.67;1.10;;;22.70;52.20;;;;;;5061168;28;20040;-65
2022/12/20 08:20:07;;;;;;;1.83;1.17;;;22.70;52.20;;;;;;5056863;28;20052;-66
2022/12/20 08:22:34;;;;;;;2.13;1.27;;;22.70;52.30;;;;;;5055388;28;20047;-67
2022/12/20 08:24:59;;;;;;;2.35;1.10;;;22.70;52.70;;;;;;5053468;28;20060;-67
2022/12/20 08:27:25;;;;;;;1.48;1.00;;;22.70;52.40;;;;;;5057116;28;20470;-65
2022/12/20 08:29:50;;;;;;;1.88;1.10;;;22.70;52.70;;;;;;5059301;28;20068;-66
2022/12/20 08:32:16;;;;;;;1.83;1.10;;;22.70;52.80;;;;;;5044651;28;20644;-66
2022/12/20 08:34:42;;;;;;;1.85;1.10;;;22.70;53.00;;;;;;5055600;28;20499;-65
2022/12/20 08:37:07;;;;;;;1.85;1.00;;;22.80;53.30;;;;;;5046647;28;20449;-66
2022/12/20 08:39:33;;;;;;;1.48;1.00;;;22.80;53.50;;;;;;5055200;28;20060;-66
2022/12/20 08:41:58;;;;;;;1.60;1.02;;;22.80;53.80;;;;;;5055515;28;20389;-68
2022/12/20 08:44:24;;;;;;;1.80;1.10;;;22.80;53.30;;;;;;5059487;28;20028;-67
2022/12/20 08:46:50;;;;;;;1.83;1.10;;;22.80;53.70;;;;;;5047140;28;20158;-66
2022/12/20 08:49:16;;;;;;;3.22;1.20;;;22.80;53.80;;;;;;5059432;28;20043;-66
2022/12/20 08:51:41;;;;;;;2.88;1.00;;;22.80;54.20;;;;;;5052428;28;20057;-66
2022/12/20 08:54:07;;;;;;;2.45;1.02;;;22.90;54.30;;;;;;5053191;28;20045;-65
2022/12/20 08:56:33;;;;;;;2.85;1.80;;;22.80;54.60;;;;;;5049765;28;20033;-66
2022/12/20 08:58:58;;;;;;;3.80;2.17;;;22.80;51.30;;;;;;5063558;28;20055;-67
2022/12/20 09:01:32;;;;;;;2.58;1.80;;;22.80;49.10;;;;;;5071095;28;20021;-66
2022/12/20 09:03:58;;;;;;;2.35;1.58;;;22.80;49.10;;;;;;5058549;28;20108;-66
2022/12/20 09:06:23;;;;;;;2.40;1.67;;;22.70;49.40;;;;;;5064008;28;20056;-66
2022/12/20 09:08:49;;;;;;;2.15;1.50;;;22.70;49.50;;;;;;5057584;28;20075;-66
2022/12/20 09:11:18;;;;;;;2.25;1.55;;;22.70;49.70;;;;;;5053163;28;20025;-67
2022/12/20 09:13:45;;;;;;;2.47;1.67;;;22.70;49.70;;;;;;5048443;28;20115;-67
2022/12/20 09:16:14;;;;;;;1.95;1.48;;;22.70;49.70;;;;;;5050287;28;20029;-67
2022/12/20 09:18:40;;;;;;;2.53;1.65;;;22.70;49.70;;;;;;5049546;28;20030;-67
2022/12/20 09:21:06;;;;;;;1.90;1.30;;;22.60;49.60;;;;;;5042069;28;20035;-66
2022/12/20 09:23:34;;;;;;;2.25;1.60;;;22.60;49.70;;;;;;5049788;28;20037;-66
2022/12/20 09:26:11;;;;;;;1.95;1.30;;;22.60;49.80;;;;;;5049118;28;20013;-66
2022/12/20 09:28:36;;;;;;;2.03;1.35;;;22.60;49.80;;;;;;5054631;28;20111;-66
2022/12/20 09:31:07;;;;;;;2.00;1.40;;;22.60;49.70;;;;;;5045768;28;20571;-66
2022/12/20 09:33:33;;;;;;;2.00;1.40;;;22.60;49.80;;;;;;5052812;28;20043;-67
2022/12/20 09:36:00;;;;;;;2.20;1.40;;;22.60;50.10;;;;;;5056470;28;20048;-66
2022/12/20 09:38:27;;;;;;;2.45;1.50;;;22.70;49.90;;;;;;5033522;28;20034;-67
2022/12/20 09:40:56;;;;;;;2.78;1.33;;;22.60;49.80;;;;;;5051374;28;20044;-66
2022/12/20 09:43:23;;;;;;;2.58;1.55;;;22.60;49.80;;;;;;5049378;28;20025;-66
2022/12/20 09:45:53;;;;;;;2.10;1.42;;;22.60;49.70;;;;;;5054894;28;20408;-67
2022/12/20 09:48:38;;;;;;;2.25;1.60;;;22.60;49.80;;;;;;5057060;28;20037;-67
2022/12/20 09:51:13;;;;;;;3.30;2.28;;;22.60;49.60;;;;;;5059486;28;20119;-66
2022/12/20 09:53:50;;;;;;;2.97;1.60;;;22.60;48.60;;;;;;5054571;28;20033;-66
2022/12/20 09:56:27;;;;;;;2.20;1.60;;;22.80;49.00;;;;;;5047389;28;20395;-66
2022/12/20 09:59:13;;;;;;;2.13;1.52;;;23.10;48.70;;;;;;5057837;28;20035;-66
2022/12/20 10:01:44;;;;;;;2.10;1.40;;;23.30;48.50;;;;;;5061810;28;20029;-66
2022/12/20 10:04:25;;;;;;;2.50;1.30;;;23.40;48.80;;;;;;5061717;28;20027;-67
2022/12/20 10:06:51;;;;;;;2.35;1.30;;;23.30;49.10;;;;;;5065425;28;20087;-65
2022/12/20 10:09:35;;;;;;;2.10;1.27;;;23.30;49.40;;;;;;5062348;28;20365;-67
2022/12/20 10:12:14;;;;;;;1.75;1.20;;;23.20;49.60;;;;;;5063329;28;20025;-66
2022/12/20 10:14:58;;;;;;;2.25;1.48;;;23.20;49.70;;;;;;5064667;28;20056;-67
2022/12/20 10:17:45;;;;;;;1.95;1.30;;;23.20;50.10;;;;;;5065021;28;20025;-67
2022/12/20 10:20:48;;;;;;;2.00;1.40;;;23.30;50.00;;;;;;5056972;28;20449;-66
2022/12/20 10:23:34;;;;;;;2.85;1.48;;;23.30;50.10;;;;;;5043927;28;20032;-66
2022/12/20 10:26:00;;;;;;;2.28;1.30;;;23.30;50.20;;;;;;5065136;28;20029;-66
2022/12/20 10:28:34;;;;;;;1.67;1.20;;;23.30;50.30;;;;;;5061769;28;20099;-66
2022/12/20 10:31:11;;;;;;;2.33;1.40;;;23.30;50.30;;;;;;5059413;28;20112;-67
2022/12/20 10:33:37;;;;;;;2.28;1.40;;;23.40;50.60;;;;;;5054299;28;20024;-66
2022/12/20 10:36:27;;;;;;;2.03;1.30;;;23.50;50.30;;;;;;5051929;28;20541;-67
2022/12/20 10:39:01;;;;;;;1.70;1.30;;;23.50;50.30;;;;;;5068345;28;20051;-63
2022/12/20 10:41:29;;;;;;;2.10;1.20;;;23.50;50.40;;;;;;5057016;28;20028;-65
2022/12/20 10:43:55;;;;;;;1.80;1.27;;;23.50;50.50;;;;;;5067552;28;20017;-66
2022/12/20 10:46:22;;;;;;;1.60;1.20;;;23.50;50.70;;;;;;5065736;28;20094;-66
2022/12/20 10:48:48;;;;;;;2.00;1.30;;;23.50;50.60;;;;;;5056449;28;20021;-65
2022/12/20 10:51:17;;;;;;;2.78;1.50;;;23.50;50.80;;;;;;5061325;28;20021;-66
2022/12/20 10:53:56;;;;;;;1.73;1.05;;;23.60;50.80;;;;;;5062453;28;20025;-66
2022/12/20 10:56:27;;;;;;;1.70;1.20;;;23.60;50.90;;;;;;5063999;28;20034;-66
2022/12/20 10:58:58;;;;;;;1.50;1.20;;;23.60;50.90;;;;;;5046911;28;20029;-66
2022/12/20 11:01:47;;;;;;;1.90;1.20;;;23.60;51.00;;;;;;5062826;28;20488;-66
2022/12/20 11:04:34;;;;;;;;;;;23.60;51.10;;;;;;5045269;28;20122;-67
2022/12/20 11:07:02;;;;;;;2.00;1.30;;;23.70;51.10;;;;;;5046248;28;19904;-66
2022/12/20 11:09:36;;;;;;;1.80;1.23;;;23.80;50.90;;;;;;5061715;28;20025;-66
2022/12/20 11:12:13;;;;;;;1.80;1.17;;;23.80;50.90;;;;;;5062533;28;20081;-68
2022/12/20 11:14:40;;;;;;;2.00;1.20;;;23.80;51.00;;;;;;5062537;28;20023;-66
2022/12/20 11:17:33;;;;;;;1.73;1.20;;;23.80;51.00;;;;;;5029023;28;20452;-67
2022/12/20 11:20:29;;;;;;;2.10;1.40;;;23.80;51.00;;;;;;5059486;28;20060;-66
2022/12/20 11:23:17;;;;;;;1.90;1.10;;;23.80;51.10;;;;;;5047104;28;20067;-67
2022/12/20 11:26:03;;;;;;;1.33;0.95;;;23.90;51.00;;;;;;5049511;28;20365;-67
2022/12/20 11:29:07;;;;;;;1.58;1.10;;;23.90;51.00;;;;;;5056545;28;20032;-67
2022/12/20 11:32:07;;;;;;;1.45;1.05;;;23.90;51.00;;;;;;5056988;28;20028;-67
2022/12/20 11:35:08;;;;;;;1.60;1.10;;;23.90;51.10;;;;;;5048435;28;20036;-67
2022/12/20 11:37:47;;;;;;;1.90;1.15;;;23.90;51.10;;;;;;5043274;28;20033;-68
2022/12/20 11:40:22;;;;;;;1.52;1.10;;;24.00;51.20;;;;;;5065662;28;20444;-67
2022/12/20 11:42:58;;;;;;;1.50;1.10;;;24.10;51.00;;;;;;5065043;28;20029;-67
2022/12/20 11:45:49;;;;;;;1.52;1.10;;;24.20;50.90;;;;;;5066581;28;20029;-67
2022/12/20 11:48:32;;;;;;;1.88;1.20;;;24.10;51.00;;;;;;5059593;28;20475;-67
2022/12/20 11:51:30;;;;;;;1.73;1.10;;;24.10;51.00;;;;;;5063936;28;20026;-68
2022/12/20 11:54:22;;;;;;;1.33;1.00;;;24.10;51.00;;;;;;5061280;28;20175;-67
2022/12/20 11:56:51;;;;;;;2.08;1.30;;;24.10;51.00;;;;;;5042428;28;20029;-68
2022/12/20 11:59:32;;;;;;;1.25;1.02;;;24.10;51.30;;;;;;5069414;28;20017;-68
2022/12/20 12:02:11;;;;;;;1.48;1.20;;;24.20;51.10;;;;;;5053917;28;20381;-68
2022/12/20 12:04:47;;;;;;;1.58;1.10;;;24.20;51.60;;;;;;5064667;28;20024;-68
2022/12/20 12:07:24;;;;;;;1.70;1.10;;;24.20;51.10;;;;;;5064744;28;20052;-68
2022/12/20 12:10:01;;;;;;;2.17;1.33;;;24.20;51.00;;;;;;5064492;28;20032;-67
2022/12/20 12:12:42;;;;;;;1.90;1.30;;;24.20;51.20;;;;;;5050900;28;20030;-68
2022/12/20 12:15:14;;;;;;;1.52;1.10;;;24.20;50.90;;;;;;5052479;28;20111;-68
2022/12/20 12:17:57;;;;;;;1.92;1.25;;;24.30;51.10;;;;;;5048865;28;20028;-69
2022/12/20 12:20:44;;;;;;;3.20;2.10;;;24.40;51.00;;;;;;5059562;28;20027;-69
2022/12/20 12:23:24;;;;;;;3.08;2.28;;;24.30;46.60;;;;;;5046766;28;20033;-68
2022/12/20 12:25:50;;;;;;;2.63;2.00;;;24.20;44.90;;;;;;5032708;28;20029;-70
2022/12/20 12:28:18;;;;;;;2.67;1.85;;;24.10;44.80;;;;;;5045310;28;20584;-69
2022/12/20 12:30:52;;;;;;;2.08;1.55;;;24.00;45.70;;;;;;5043524;28;20041;-69
2022/12/20 12:33:34;;;;;;;2.00;1.45;;;24.00;46.50;;;;;;5056206;28;20021;-68
2022/12/20 12:36:17;;;;;;;2.08;1.50;;;24.20;46.70;;;;;;5055827;28;20089;-68
2022/12/20 12:39:03;;;;;;;3.60;1.40;;;24.30;47.00;;;;;;5050669;28;20021;-68
2022/12/20 12:41:50;;;;;;;1.92;1.38;;;24.20;47.20;;;;;;5051249;28;20061;-68
2022/12/20 12:44:18;;;;;;;2.38;1.63;;;24.20;47.40;;;;;;5045626;28;20028;-68
2022/12/20 12:46:49;;;;;;;3.08;1.60;;;24.20;47.70;;;;;;5060660;28;20092;-68
2022/12/20 12:49:21;;;;;;;1.65;1.20;;;24.20;47.70;;;;;;5054195;28;20612;-69
2022/12/20 12:51:52;;;;;;;2.15;1.50;;;24.20;48.10;;;;;;5053576;28;20039;-68
2022/12/20 12:54:26;;;;;;;1.75;1.30;;;24.10;47.90;;;;;;5052323;28;20368;-69
2022/12/20 12:56:58;;;;;;;1.65;1.33;;;24.20;48.30;;;;;;5059587;28;20023;-70
2022/12/20 12:59:44;;;;;;;1.98;1.45;;;24.10;48.10;;;;;;5048566;28;20025;-69
2022/12/20 13:02:13;;;;;;;1.90;1.40;;;24.10;47.90;;;;;;5059376;28;20100;-68
2022/12/20 13:04:59;;;;;;;2.10;1.42;;;24.10;47.80;;;;;;5058933;28;20023;-69
2022/12/20 13:07:32;;;;;;;2.33;1.58;;;24.10;47.80;;;;;;5044998;28;20516;-68
2022/12/20 13:10:28;;;;;;;1.80;1.25;;;24.00;47.90;;;;;;5036024;28;20525;-69